Time;durP1;ratioP1;P1;durP2;ratioP2;P2;SDS_P1;SDS_P2;PMS_P1;PMS_P2;Temp;Humidity;BMP_temperature;BMP_pressure;BME280_temperature;BME280_humidity;BME280_pressure;Samples;Min_cycle;Max_cycle;Signal;HPM_P1;HPM_P2
2021/04/01 00:00:10;;;;;;;;;;;;;;;14.01;59.96;100128.59;4348175;33;19975;-86
2021/04/01 00:02:36;;;;;;;;;;;;;;;13.97;59.96;100132.25;4359331;32;20010;-86
2021/04/01 00:05:01;;;;;;;;;;;;;;;13.85;59.94;100136.19;4359326;32;20275;-85
2021/04/01 00:07:26;;;;;;;;;;;;;;;13.99;59.95;100130.44;4347727;33;28806;-86
2021/04/01 00:09:51;;;;;;;;;;;;;;;14.02;59.97;100131.16;4346404;33;20035;-86
2021/04/01 00:12:17;;;;;;;;;;;;;;;14.07;59.96;100125.72;4346970;33;19991;-86
2021/04/01 00:14:42;;;;;;;;;;;;;;;14.01;59.95;100131.22;4359230;32;20330;-86
2021/04/01 00:17:07;;;;;;;;;;;;;;;13.87;59.96;100121.28;4346753;33;19975;-86
2021/04/01 00:19:32;;;;;;;;;;;;;;;13.95;59.96;100124.44;4346742;33;20046;-85
2021/04/01 00:21:58;;;;;;;;;;;;;;;14.02;59.95;100117.22;4346743;33;20059;-85
2021/04/01 00:24:23;;;;;;;;;;;;;;;13.71;59.94;100115.78;4359107;32;19999;-85
2021/04/01 00:26:48;;;;;;;;;;;;;;;13.67;59.94;100108.97;4346090;33;27321;-84
2021/04/01 00:29:13;;;;;;;;;;;;;;;13.70;59.94;100113.22;4358673;32;24072;-85
2021/04/01 00:31:38;;;;;;;;;;;;;;;13.69;59.94;100112.38;4346909;33;25383;-84
2021/04/01 00:34:04;;;;;;;;;;;;;;;13.58;59.94;100100.66;4358661;32;19987;-85
2021/04/01 00:36:29;;;;;;;;;;;;;;;13.34;59.92;100103.28;4358991;32;19975;-83
2021/04/01 00:38:54;;;;;;;;;;;;;;;13.57;59.94;100107.63;4346139;33;24676;-87
2021/04/01 00:41:19;;;;;;;;;;;;;;;13.68;59.94;100097.59;4347917;33;20253;-87
2021/04/01 00:43:45;;;;;;;;;;;;;;;13.56;59.93;100098.09;4347638;33;19995;-87
2021/04/01 00:46:10;;;;;;;;;;;;;;;13.46;59.93;100101.94;4358980;32;20147;-87
2021/04/01 00:48:35;;;;;;;;;;;;;;;13.70;59.94;100095.78;4358832;32;20289;-87
2021/04/01 00:51:00;;;;;;;;;;;;;;;13.67;59.94;100090.66;4358668;32;27684;-88
2021/04/01 00:53:25;;;;;;;;;;;;;;;13.73;59.94;100093.06;4346652;33;20022;-90
2021/04/01 00:55:51;;;;;;;;;;;;;;;13.67;59.94;100085.44;4346060;33;33648;-89
2021/04/01 00:58:16;;;;;;;;;;;;;;;13.63;59.93;100083.00;4358522;32;29801;-88
2021/04/01 01:00:41;;;;;;;;;;;;;;;13.51;59.93;100084.34;4346539;33;20005;-90
2021/04/01 01:03:06;;;;;;;;;;;;;;;13.55;59.93;100085.06;4359457;32;19990;-90
2021/04/01 01:05:32;;;;;;;;;;;;;;;13.31;59.91;100081.63;4358902;32;21693;-90
2021/04/01 01:07:57;;;;;;;;;;;;;;;13.41;59.92;100080.34;4348292;33;20019;-89
2021/04/01 01:10:24;;;;;;;;;;;;;;;13.47;59.92;100069.66;4347429;33;19991;-91
2021/04/01 01:12:50;;;;;;;;;;;;;;;13.45;59.92;100071.47;4347776;33;19995;-90
2021/04/01 01:15:15;;;;;;;;;;;;;;;13.37;59.92;100071.78;4347064;33;25199;-92
2021/04/01 01:17:40;;;;;;;;;;;;;;;13.41;59.91;100068.13;4360200;32;20357;-91
2021/04/01 01:20:08;;;;;;;;;;;;;;;13.41;59.92;100069.91;4359814;32;20004;-90
2021/04/01 01:22:35;;;;;;;;;;;;;;;13.33;59.91;100061.50;4347088;32;19988;-91
2021/04/01 01:25:00;;;;;;;;;;;;;;;13.29;59.92;100054.69;4347128;33;19983;-90
2021/04/01 01:27:25;;;;;;;;;;;;;;;13.14;59.91;100056.94;4346247;33;22292;-88
2021/04/01 01:29:51;;;;;;;;;;;;;;;13.09;59.90;100053.66;4346369;33;19996;-88
2021/04/01 01:32:16;;;;;;;;;;;;;;;13.12;59.91;100047.44;4346830;33;28189;-88
2021/04/01 01:34:42;;;;;;;;;;;;;;;13.17;59.91;100045.50;4358741;32;20342;-88
2021/04/01 01:37:07;;;;;;;;;;;;;;;13.07;59.91;100042.41;4346215;33;20046;-87
2021/04/01 01:39:32;;;;;;;;;;;;;;;13.34;59.92;100042.28;4358558;32;20014;-86
2021/04/01 01:41:57;;;;;;;;;;;;;;;13.20;59.92;100042.81;4358201;32;26830;-87
2021/04/01 01:44:23;;;;;;;;;;;;;;;13.17;59.91;100035.06;4347223;33;20043;-88
2021/04/01 01:46:48;;;;;;;;;;;;;;;13.24;59.91;100027.84;4346148;33;20048;-87
2021/04/01 01:49:13;;;;;;;;;;;;;;;13.24;59.91;100036.56;4345926;33;20360;-88
2021/04/01 01:51:39;;;;;;;;;;;;;;;13.32;59.92;100021.44;4345803;33;21281;-87
2021/04/01 01:54:04;;;;;;;;;;;;;;;13.39;59.92;100029.88;4346040;33;20015;-87
2021/04/01 01:56:29;;;;;;;;;;;;;;;13.15;59.91;100023.81;4346114;33;19999;-88
2021/04/01 01:58:55;;;;;;;;;;;;;;;13.16;59.91;100028.13;4358617;32;19999;-87
2021/04/01 02:01:21;;;;;;;;;;;;;;;13.18;59.91;100026.34;4347559;33;20011;-86
2021/04/01 02:03:46;;;;;;;;;;;;;;;13.08;59.90;100031.03;4347579;33;20361;-86
2021/04/01 02:06:12;;;;;;;;;;;;;;;12.96;59.89;100028.03;4347323;33;19996;-87
2021/04/01 02:08:37;;;;;;;;;;;;;;;13.03;59.91;100027.75;4347349;33;20333;-86
2021/04/01 02:11:02;;;;;;;;;;;;;;;13.07;59.91;100023.25;4346787;33;19995;-86
2021/04/01 02:13:27;;;;;;;;;;;;;;;12.95;59.90;100024.56;4358418;32;19986;-86
2021/04/01 02:15:54;;;;;;;;;;;;;;;12.86;59.89;100022.28;4357988;32;20317;-87
2021/04/01 02:18:20;;;;;;;;;;;;;;;12.85;59.89;100021.44;4345982;33;19995;-87
2021/04/01 02:20:47;;;;;;;;;;;;;;;12.82;59.89;100010.25;4347323;33;20385;-86
2021/04/01 02:23:13;;;;;;;;;;;;;;;12.73;59.89;100015.81;4347314;33;20739;-86
2021/04/01 02:25:38;;;;;;;;;;;;;;;12.64;59.87;100006.56;4358517;32;20333;-86
2021/04/01 02:28:04;;;;;;;;;;;;;;;12.63;59.88;100004.84;4358502;32;20046;-87
2021/04/01 02:30:29;;;;;;;;;;;;;;;12.74;59.89;100005.31;4345764;33;20100;-87
2021/04/01 02:32:55;;;;;;;;;;;;;;;12.56;59.87;100001.62;4347317;33;19972;-87
2021/04/01 02:35:20;;;;;;;;;;;;;;;12.64;59.87;100003.09;4358230;32;20006;-87
2021/04/01 02:37:45;;;;;;;;;;;;;;;12.63;59.88;100002.25;4345747;33;19999;-87
2021/04/01 02:40:12;;;;;;;;;;;;;;;12.56;59.87;100004.22;4357843;32;21266;-87
2021/04/01 02:42:37;;;;;;;;;;;;;;;12.68;59.88;100002.91;4358351;32;19983;-86
2021/04/01 02:45:03;;;;;;;;;;;;;;;12.58;59.88;99999.81;4347200;33;20014;-88
2021/04/01 02:47:28;;;;;;;;;;;;;;;12.52;59.87;99999.16;4345687;33;20338;-87
2021/04/01 02:49:53;;;;;;;;;;;;;;;12.64;59.87;100005.72;4357661;32;20474;-87
2021/04/01 02:52:18;;;;;;;;;;;;;;;12.36;59.87;100003.22;4345015;33;29213;-87
2021/04/01 02:54:44;;;;;;;;;;;;;;;12.40;59.86;100005.69;4344664;33;19991;-87
2021/04/01 02:57:13;;;;;;;;;;;;;;;12.34;59.86;99998.06;4344748;33;29993;-86
2021/04/01 02:59:38;;;;;;;;;;;;;;;12.36;59.87;99998.00;4358007;32;20029;-88
2021/04/01 03:02:04;;;;;;;;;;;;;;;12.51;59.88;99987.84;4358019;32;20337;-87
2021/04/01 03:04:31;;;;;;;;;;;;;;;12.56;59.88;99998.16;4357893;32;19994;-88
2021/04/01 03:06:56;;;;;;;;;;;;;;;12.44;59.88;99995.97;4358131;32;20009;-88
2021/04/01 03:09:21;;;;;;;;;;;;;;;12.58;59.88;99993.72;4344827;33;30714;-87
2021/04/01 03:11:46;;;;;;;;;;;;;;;12.52;59.88;99991.31;4346211;33;30853;-87
2021/04/01 03:14:12;;;;;;;;;;;;;;;12.48;59.87;99987.13;4346103;33;32146;-88
2021/04/01 03:16:37;;;;;;;;;;;;;;;12.72;59.88;99981.00;4357458;32;20007;-87
2021/04/01 03:19:02;;;;;;;;;;;;;;;12.51;59.88;99982.62;4344980;33;22670;-88
2021/04/01 03:21:27;;;;;;;;;;;;;;;12.54;59.88;99992.13;4357240;32;30224;-87
2021/04/01 03:23:53;;;;;;;;;;;;;;;12.35;59.86;99984.09;4346135;33;21500;-86
2021/04/01 03:26:18;;;;;;;;;;;;;;;12.43;59.88;99989.06;4357115;32;25493;-87
2021/04/01 03:28:43;;;;;;;;;;;;;;;12.28;59.87;99986.06;4344577;33;35910;-87
2021/04/01 03:31:08;;;;;;;;;;;;;;;12.25;59.85;99987.94;4344712;33;28386;-87
2021/04/01 03:33:33;;;;;;;;;;;;;;;12.22;59.86;99990.66;4346543;33;20036;-86
2021/04/01 03:35:59;;;;;;;;;;;;;;;12.24;59.86;99986.22;4346376;33;20258;-86
2021/04/01 03:38:25;;;;;;;;;;;;;;;12.22;59.86;99981.06;4346549;33;20350;-86
2021/04/01 03:40:52;;;;;;;;;;;;;;;12.21;59.86;99999.38;4357417;32;19983;-85
2021/04/01 03:43:18;;;;;;;;;;;;;;;12.28;59.86;99993.87;4345232;33;19991;-85
2021/04/01 03:45:43;;;;;;;;;;;;;;;12.18;59.85;99989.06;4346572;33;20696;-87
2021/04/01 03:48:08;;;;;;;;;;;;;;;12.16;59.86;99996.09;4345151;33;20234;-87
2021/04/01 03:50:34;;;;;;;;;;;;;;;11.90;59.84;99990.00;4357526;32;19983;-87
2021/04/01 03:52:59;;;;;;;;;;;;;;;11.84;59.84;99994.59;4344945;33;20344;-86
2021/04/01 03:55:38;;;;;;;;;;;;;;;11.75;59.82;99989.62;4344553;33;19998;-87
2021/04/01 03:58:24;;;;;;;;;;;;;;;11.59;59.82;99991.88;4357342;32;20039;-87
2021/04/01 04:11:35;;;;;;;;;;;;;;;11.53;59.83;99984.25;4347845;33;20009;-85
2021/04/01 04:16:34;;;;;;;;;;;;;;;11.65;59.82;99974.28;4358543;32;20095;-85
2021/04/01 04:19:00;;;;;;;;;;;;;;;11.58;59.82;99977.13;4348238;33;20526;-86
2021/04/01 04:21:25;;;;;;;;;;;;;;;11.94;59.84;99972.50;4347608;33;24273;-85
2021/04/01 04:23:51;;;;;;;;;;;;;;;11.68;59.83;99974.19;4346750;33;19999;-85
2021/04/01 04:26:16;;;;;;;;;;;;;;;11.56;59.82;99977.19;4348128;33;19979;-84
2021/04/01 04:28:41;;;;;;;;;;;;;;;11.74;59.83;99974.88;4359161;32;20757;-85
2021/04/01 04:31:06;;;;;;;;;;;;;;;11.67;59.83;99972.47;4346702;33;20042;-84
2021/04/01 04:33:32;;;;;;;;;;;;;;;11.91;59.85;99972.59;4359349;32;20007;-85
2021/04/01 04:35:57;;;;;;;;;;;;;;;11.68;59.83;99971.56;4348007;33;19995;-84
2021/04/01 04:38:23;;;;;;;;;;;;;;;11.45;59.81;99968.88;4348260;33;19990;-85
2021/04/01 04:40:50;;;;;;;;;;;;;;;11.62;59.83;99968.31;4359252;32;20010;-85
2021/04/01 04:43:15;;;;;;;;;;;;;;;11.67;59.82;99969.03;4359310;32;19991;-86
2021/04/01 04:45:41;;;;;;;;;;;;;;;11.72;59.82;99967.09;4348233;33;20040;-86
2021/04/01 04:48:06;;;;;;;;;;;;;;;11.52;59.81;99972.13;4359144;32;20329;-86
2021/04/01 04:50:31;;;;;;;;;;;;;;;11.51;59.82;99962.59;4347983;33;19983;-85
2021/04/01 04:52:57;;;;;;;;;;;;;;;11.62;59.82;99966.56;4359218;32;20031;-86
2021/04/01 04:55:23;;;;;;;;;;;;;;;11.63;59.82;99964.81;4348140;33;20002;-85
2021/04/01 05:05:33;;;;;;;;;;;;;;;11.70;59.83;99961.09;4347891;33;20125;-86
2021/04/01 05:07:58;;;;;;;;;;;;;;;11.95;59.83;99964.59;4346470;33;19976;-86
2021/04/01 05:10:23;;;;;;;;;;;;;;;11.89;59.83;99969.19;4357792;32;34227;-86
2021/04/01 05:13:00;;;;;;;;;;;;;;;12.12;59.85;99971.00;4347830;33;20046;-85
2021/04/01 05:15:26;;;;;;;;;;;;;;;12.06;59.85;99966.84;4347860;33;20022;-86
2021/04/01 05:17:51;;;;;;;;;;;;;;;12.37;59.87;99963.16;4345760;33;19999;-86
2021/04/01 05:20:18;;;;;;;;;;;;;;;12.31;59.86;99963.41;4347739;33;20022;-85
2021/04/01 05:22:51;;;;;;;;;;;;;;;12.45;59.87;99968.97;4346386;33;20308;-84
2021/04/01 05:25:16;;;;;;;;;;;;;;;12.40;59.86;99965.66;4358229;32;20042;-86
2021/04/01 05:30:07;;;;;;;;;;;;;;;12.57;59.87;99958.09;4358893;32;20019;-85
2021/04/01 05:32:35;;;;;;;;;;;;;;;12.64;59.88;99959.56;4358650;32;19992;-86
2021/04/01 05:35:03;;;;;;;;;;;;;;;12.72;59.88;99954.87;4358570;32;20003;-85
2021/04/01 05:37:28;;;;;;;;;;;;;;;13.02;59.90;99957.25;4358494;32;20038;-86
2021/04/01 05:39:54;;;;;;;;;;;;;;;13.06;59.90;99949.25;4346084;33;20316;-86
2021/04/01 05:42:21;;;;;;;;;;;;;;;13.14;59.91;99946.31;4358164;32;20018;-85
2021/04/01 05:48:18;;;;;;;;;;;;;;;13.51;59.93;99945.75;4349520;32;19987;-86
2021/04/01 06:04:11;;;;;;;;;;;;;;;14.50;59.98;99936.25;4356832;32;20340;-83
2021/04/01 06:06:50;;;;;;;;;;;;;;;14.89;60.00;99938.78;4357922;32;19995;-85
2021/04/01 06:09:23;;;;;;;;;;;;;;;14.94;60.01;99928.97;4356828;32;20166;-84
2021/04/01 06:11:55;;;;;;;;;;;;;;;15.07;60.01;99931.00;4357680;32;20014;-84
2021/04/01 06:14:33;;;;;;;;;;;;;;;15.32;60.04;99923.66;4345667;33;20533;-84
2021/04/01 06:16:58;;;;;;;;;;;;;;;15.43;60.03;99925.75;4345551;33;20009;-84
2021/04/01 06:19:25;;;;;;;;;;;;;;;15.72;60.05;99922.56;4357559;32;27097;-84
2021/04/01 06:21:50;;;;;;;;;;;;;;;15.96;60.06;99916.06;4358136;32;19987;-84
2021/04/01 06:24:22;;;;;;;;;;;;;;;16.05;60.06;99917.34;4346359;33;26641;-84
2021/04/01 06:29:32;;;;;;;;;;;;;;;16.43;60.08;99915.34;4357987;32;19980;-84
2021/04/01 06:32:01;;;;;;;;;;;;;;;16.80;60.10;99914.25;4346975;33;20051;-84
2021/04/01 06:34:28;;;;;;;;;;;;;;;16.81;60.10;99915.97;4357671;32;19987;-84
2021/04/01 06:36:55;;;;;;;;;;;;;;;16.95;60.11;99914.31;4346968;33;20074;-85
2021/04/01 06:39:21;;;;;;;;;;;;;;;17.17;60.12;99913.03;4357965;32;19992;-85
2021/04/01 06:41:49;;;;;;;;;;;;;;;17.24;60.12;99915.31;4357580;32;19980;-85
2021/04/01 06:44:19;;;;;;;;;;;;;;;17.37;60.13;99918.97;4357430;32;19987;-85
2021/04/01 06:46:45;;;;;;;;;;;;;;;17.65;60.15;99912.94;4357970;32;20459;-86
2021/04/01 06:49:31;;;;;;;;;;;;;;;17.82;60.16;99899.69;4345462;33;19991;-86
2021/04/01 06:52:11;;;;;;;;;;;;;;;17.82;60.16;99904.09;4345308;33;20035;-86
2021/04/01 06:54:48;;;;;;;;;;;;;;;18.10;60.17;99904.13;4355496;32;19992;-85
2021/04/01 07:00:22;;;;;;;;;;;;;;;18.36;60.18;99897.25;4345812;33;19975;-86
2021/04/01 07:02:57;;;;;;;;;;;;;;;18.74;60.20;99894.91;4343027;33;20474;-85
2021/04/01 07:07:59;;;;;;;;;;;;;;;19.13;60.22;99894.13;4356585;32;19995;-86
2021/04/01 07:11:00;;;;;;;;;;;;;;;19.11;60.22;99889.91;4356127;32;20010;-86
2021/04/01 07:13:23;;;;;;;;;;;;;;;19.34;60.24;99886.59;4346429;33;19994;-84
2021/04/01 07:15:51;;;;;;;;;;;;;;;19.61;60.24;99883.97;4357815;32;20054;-85
2021/04/01 07:48:02;;;;;;;;;;;;;;;21.70;60.36;99853.94;4357837;32;20284;-86
2021/04/01 07:50:35;;;;;;;;;;;;;;;21.87;60.37;99850.00;4359083;32;20047;-86
2021/04/01 07:53:01;;;;;;;;;;;;;;;21.96;60.38;99841.31;4359495;32;19971;-86
2021/04/01 07:55:55;;;;;;;;;;;;;;;22.11;60.38;99843.78;4348326;33;19984;-86
2021/04/01 08:06:16;;;;;;;;;;;;;;;22.78;60.42;99831.31;4358815;32;19984;-87
2021/04/01 08:08:44;;;;;;;;;;;;;;;22.74;60.42;99827.22;4348339;33;20353;-86
2021/04/01 08:11:09;;;;;;;;;;;;;;;22.93;60.43;99827.41;4358961;32;20009;-87
2021/04/01 08:13:35;;;;;;;;;;;;;;;22.99;60.43;99825.25;4346716;33;20285;-87
2021/04/01 08:16:04;;;;;;;;;;;;;;;23.25;60.44;99823.94;4346756;33;20329;-87
2021/04/01 08:18:34;;;;;;;;;;;;;;;23.51;60.46;99819.06;4348149;33;20357;-86
2021/04/01 08:21:02;;;;;;;;;;;;;;;23.56;60.46;99820.41;4358856;32;19995;-86
2021/04/01 08:23:30;;;;;;;;;;;;;;;23.70;60.47;99819.25;4359061;32;20329;-87
2021/04/01 08:34:11;;;;;;;;;;;;;;;24.11;60.49;99807.66;4348233;33;19987;-87
2021/04/01 08:36:43;;;;;;;;;;;;;;;24.35;60.49;99803.87;4347994;33;19980;-87
2021/04/01 08:39:08;;;;;;;;;;;;;;;24.47;60.51;99806.28;4359049;32;20002;-87
2021/04/01 08:41:34;;;;;;;;;;;;;;;24.67;60.51;99803.69;4359150;32;19991;-87
2021/04/01 08:44:05;;;;;;;;;;;;;;;24.74;60.51;99800.31;4348022;33;20071;-87
2021/04/01 08:46:33;;;;;;;;;;;;;;;24.99;60.54;99793.63;4348020;33;19987;-87
2021/04/01 08:49:17;;;;;;;;;;;;;;;25.12;60.54;99790.72;4347940;33;19992;-87
2021/04/01 08:51:42;;;;;;;;;;;;;;;25.20;60.55;99790.00;4348159;33;19998;-87
2021/04/01 08:54:11;;;;;;;;;;;;;;;25.29;60.55;99784.66;4347150;33;20006;-87
2021/04/01 08:56:38;;;;;;;;;;;;;;;25.50;60.56;99776.47;4358874;32;20328;-87
2021/04/01 08:59:22;;;;;;;;;;;;;;;25.49;60.57;99773.97;4346469;33;20017;-87
2021/04/01 09:01:52;;;;;;;;;;;;;;;25.57;60.56;99774.09;4358811;32;20015;-87
2021/04/01 09:04:21;;;;;;;;;;;;;;;25.68;60.57;99765.94;4346578;33;19998;-87
2021/04/01 09:06:47;;;;;;;;;;;;;;;25.62;60.58;99766.50;4358870;32;19975;-87
2021/04/01 09:09:13;;;;;;;;;;;;;;;25.64;60.57;99765.37;4346615;33;20002;-86
2021/04/01 09:11:57;;;;;;;;;;;;;;;25.72;60.58;99753.16;4331592;33;19995;-87
2021/04/01 09:14:30;;;;;;;;;;;;;;;25.93;60.59;99757.28;4331988;33;20362;-87
2021/04/01 09:17:08;;;;;;;;;;;;;;;25.98;60.59;99754.19;4319497;33;19998;-86
2021/04/01 09:19:34;;;;;;;;;;;;;;;26.20;60.60;99759.13;4333188;33;19991;-87
2021/04/01 09:21:59;;;;;;;;;;;;;;;26.27;60.60;99748.72;4331656;33;19988;-87
2021/04/01 09:24:28;;;;;;;;;;;;;;;26.34;60.61;99746.28;4331685;33;19998;-87
2021/04/01 09:26:54;;;;;;;;;;;;;;;26.38;60.61;99745.84;4331775;33;19980;-87
2021/04/01 09:29:19;;;;;;;;;;;;;;;26.53;60.61;99740.84;4333094;33;20011;-86
2021/04/01 09:31:47;;;;;;;;;;;;;;;26.55;60.63;99737.03;4331662;33;20400;-87
2021/04/01 09:34:13;;;;;;;;;;;;;;;26.69;60.62;99726.81;4331639;33;19980;-87
2021/04/01 09:36:42;;;;;;;;;;;;;;;26.75;60.63;99727.06;4331497;33;19983;-87
2021/04/01 09:39:28;;;;;;;;;;;;;;;26.84;60.63;99719.94;4331666;33;20339;-87
2021/04/01 09:42:16;;;;;;;;;;;;;;;26.98;60.64;99716.75;4319304;33;20353;-87
2021/04/01 09:44:52;;;;;;;;;;;;;;;26.99;60.64;99718.44;4328430;33;20033;-87
2021/04/01 09:47:18;;;;;;;;;;;;;;;27.10;60.64;99710.16;4331467;33;20288;-88
2021/04/01 09:49:43;;;;;;;;;;;;;;;27.31;60.66;99706.31;4331653;33;20043;-88
2021/04/01 09:52:08;;;;;;;;;;;;;;;27.32;60.66;99703.47;4332749;33;19992;-87
2021/04/01 09:54:34;;;;;;;;;;;;;;;27.47;60.67;99701.06;4332784;33;19999;-87
2021/04/01 09:56:59;;;;;;;;;;;;;;;27.65;60.67;99701.84;4319194;33;19984;-87
2021/04/01 09:59:37;;;;;;;;;;;;;;;27.56;60.67;99699.28;4332910;33;19995;-85
2021/04/01 10:02:03;;;;;;;;;;;;;;;27.75;60.69;99699.91;4332984;33;20010;-86
2021/04/01 10:04:29;;;;;;;;;;;;;;;27.58;60.67;99687.41;4331034;33;19995;-85
2021/04/01 10:06:55;;;;;;;;;;;;;;;27.64;60.67;99694.81;4331387;33;19996;-86
2021/04/01 10:09:21;;;;;;;;;;;;;;;27.64;60.67;99689.47;4332062;33;20405;-86
2021/04/01 10:12:04;;;;;;;;;;;;;;;27.57;60.67;99684.91;4358517;32;20326;-86
2021/04/01 10:14:29;;;;;;;;;;;;;;;27.68;60.68;99688.19;4346061;32;19979;-85
2021/04/01 10:17:02;;;;;;;;;;;;;;;27.79;60.68;99681.69;4358044;32;27628;-85
2021/04/01 10:19:31;;;;;;;;;;;;;;;27.93;60.70;99669.56;4347413;33;20257;-85
2021/04/01 10:21:56;;;;;;;;;;;;;;;27.94;60.69;99676.56;4358487;32;19995;-85
2021/04/01 10:24:23;;;;;;;;;;;;;;;28.01;60.70;99678.44;4345827;33;19995;-85
2021/04/01 10:26:49;;;;;;;;;;;;;;;28.15;60.71;99668.91;4358324;32;19979;-85
2021/04/01 10:29:18;;;;;;;;;;;;;;;28.25;60.71;99658.94;4345932;33;20000;-86
2021/04/01 10:31:50;;;;;;;;;;;;;;;28.36;60.71;99661.31;4358235;32;20000;-85
2021/04/01 10:34:19;;;;;;;;;;;;;;;28.45;60.73;99654.12;4358392;32;20018;-86
2021/04/01 10:36:44;;;;;;;;;;;;;;;28.57;60.73;99651.94;4345945;33;20009;-85
2021/04/01 10:39:10;;;;;;;;;;;;;;;28.59;60.72;99645.44;4358246;32;20325;-86
2021/04/01 10:41:45;;;;;;;;;;;;;;;28.73;60.74;99639.41;4358295;32;20022;-85
2021/04/01 10:44:11;;;;;;;;;;;;;;;28.81;60.74;99629.69;4358349;32;19975;-85
2021/04/01 10:46:36;;;;;;;;;;;;;;;28.85;60.74;99631.88;4345809;33;19998;-86
2021/04/01 10:49:02;;;;;;;;;;;;;;;28.88;60.75;99620.00;4357825;32;25378;-86
2021/04/01 10:51:27;;;;;;;;;;;;;;;29.01;60.75;99621.16;4345673;33;20422;-86
2021/04/01 10:53:54;;;;;;;;;;;;;;;29.05;60.75;99621.63;4347034;33;20036;-85
2021/04/01 10:56:21;;;;;;;;;;;;;;;29.08;60.75;99610.56;4358044;32;20001;-86
2021/04/01 10:58:55;;;;;;;;;;;;;;;29.06;60.75;99612.59;4345690;33;20471;-86
2021/04/01 11:01:21;;;;;;;;;;;;;;;29.08;60.75;99609.75;4345722;33;20019;-85
2021/04/01 11:03:48;;;;;;;;;;;;;;;29.07;60.76;99605.37;4358091;32;20022;-86
2021/04/01 11:06:14;;;;;;;;;;;;;;;29.09;60.76;99598.84;4345426;33;19987;-86
2021/04/01 11:08:40;;;;;;;;;;;;;;;29.16;60.75;99601.69;4357799;32;19999;-86
2021/04/01 11:11:05;;;;;;;;;;;;;;;29.12;60.76;99595.84;4357596;32;20029;-86
2021/04/01 11:13:31;;;;;;;;;;;;;;;29.03;60.75;99591.50;4345631;33;19987;-85
2021/04/01 11:15:56;;;;;;;;;;;;;;;29.03;60.75;99588.81;4346091;33;20034;-86
2021/04/01 11:18:21;;;;;;;;;;;;;;;29.11;60.76;99582.63;4357402;32;27848;-86
2021/04/01 11:20:50;;;;;;;;;;;;;;;28.95;60.75;99580.81;4357594;32;20463;-86
2021/04/01 11:23:17;;;;;;;;;;;;;;;29.02;60.75;99576.41;4346934;33;20380;-86
2021/04/01 11:25:46;;;;;;;;;;;;;;;28.93;60.75;99561.38;4357987;32;20443;-86
2021/04/01 11:28:11;;;;;;;;;;;;;;;28.94;60.75;99555.03;4357995;32;20091;-86
2021/04/01 11:30:39;;;;;;;;;;;;;;;28.99;60.74;99552.66;4346256;33;28790;-86
2021/04/01 11:33:04;;;;;;;;;;;;;;;28.83;60.74;99564.19;4357922;32;19994;-86
2021/04/01 11:35:29;;;;;;;;;;;;;;;28.87;60.75;99565.59;4346830;33;19994;-86
2021/04/01 11:37:55;;;;;;;;;;;;;;;29.10;60.76;99551.44;4345416;33;20246;-86
2021/04/01 11:40:20;;;;;;;;;;;;;;;29.15;60.75;99557.13;4346703;33;20003;-86
2021/04/01 11:42:55;;;;;;;;;;;;;;;29.30;60.76;99552.69;4357651;32;19991;-86
2021/04/01 11:45:34;;;;;;;;;;;;;;;29.29;60.76;99543.00;4346781;33;19987;-86
2021/04/01 11:48:00;;;;;;;;;;;;;;;29.36;60.77;99543.16;4357724;32;20062;-86
2021/04/01 11:50:25;;;;;;;;;;;;;;;29.53;60.78;99528.66;4357583;32;20303;-86
2021/04/01 11:52:54;;;;;;;;;;;;;;;29.51;60.78;99528.00;4346183;33;20289;-85
2021/04/01 11:55:20;;;;;;;;;;;;;;;29.45;60.77;99529.53;4344799;33;20320;-86
2021/04/01 11:57:45;;;;;;;;;;;;;;;29.60;60.78;99521.59;4357235;32;20003;-86
2021/04/01 12:00:13;;;;;;;;;;;;;;;29.53;60.78;99509.88;4346144;33;20332;-86
2021/04/01 12:03:00;;;;;;;;;;;;;;;29.55;60.77;99505.19;4356833;32;20344;-87
2021/04/01 12:05:27;;;;;;;;;;;;;;;29.46;60.77;99512.44;4344650;33;19995;-86
2021/04/01 12:07:53;;;;;;;;;;;;;;;29.72;60.80;99505.91;4344760;33;20334;-86
2021/04/01 12:10:18;;;;;;;;;;;;;;;29.61;60.78;99496.44;4356844;32;20084;-86
2021/04/01 12:12:43;;;;;;;;;;;;;;;29.81;60.80;99500.34;4357124;32;19982;-86
2021/04/01 12:15:09;;;;;;;;;;;;;;;29.95;60.81;99493.34;4345040;33;35748;-86
2021/04/01 12:17:35;;;;;;;;;;;;;;;29.94;60.79;99486.31;4357024;32;20026;-86
2021/04/01 12:20:00;;;;;;;;;;;;;;;30.04;60.81;99476.19;4357159;32;20398;-86
2021/04/01 12:22:29;;;;;;;;;;;;;;;29.82;60.80;99487.75;4344707;33;19967;-86
2021/04/01 12:24:55;;;;;;;;;;;;;;;29.87;60.79;99480.00;4356975;32;19979;-86
2021/04/01 12:27:27;;;;;;;;;;;;;;;29.98;60.80;99476.03;4344794;33;20043;-86
2021/04/01 12:29:52;;;;;;;;;;;;;;;30.08;60.81;99471.31;4359201;32;20356;-86
2021/04/01 12:32:24;;;;;;;;;;;;;;;29.98;60.80;99471.50;4348086;33;20811;-86
2021/04/01 12:34:49;;;;;;;;;;;;;;;30.05;60.81;99467.13;4359078;32;20048;-86
2021/04/01 12:37:15;;;;;;;;;;;;;;;30.03;60.80;99462.91;4358379;32;28977;-87
2021/04/01 12:39:40;;;;;;;;;;;;;;;30.08;60.81;99453.34;4346707;33;20054;-86
2021/04/01 12:42:05;;;;;;;;;;;;;;;30.11;60.80;99446.78;4359003;32;19992;-86
2021/04/01 12:44:37;;;;;;;;;;;;;;;29.89;60.81;99448.44;4346544;33;19999;-86
2021/04/01 12:47:03;;;;;;;;;;;;;;;29.87;60.81;99445.94;4358910;32;20011;-86
2021/04/01 12:49:32;;;;;;;;;;;;;;;29.67;60.78;99441.25;4346598;33;20006;-86
2021/04/01 12:52:01;;;;;;;;;;;;;;;29.82;60.80;99434.94;4358861;32;19976;-86
2021/04/01 12:54:27;;;;;;;;;;;;;;;29.95;60.81;99437.81;4346603;33;20042;-86
2021/04/01 12:56:54;;;;;;;;;;;;;;;30.03;60.80;99433.38;4347865;33;20051;-86
2021/04/01 12:59:24;;;;;;;;;;;;;;;30.08;60.81;99434.56;4347965;33;19987;-86
2021/04/01 13:02:03;;;;;;;;;;;;;;;30.18;60.81;99419.00;4346497;33;20035;-86
2021/04/01 13:04:30;;;;;;;;;;;;;;;30.25;60.82;99411.88;4346588;33;20413;-87
2021/04/01 13:07:49;;;;;;;;;;;;;;;30.16;60.81;99409.47;4346654;33;19995;-86
2021/04/01 13:09:53;;;;;;;;;;;;;;;29.98;60.80;99415.16;4352441;32;19995;-86
2021/04/01 13:12:19;;;;;;;;;;;;;;;29.87;60.80;99411.06;4347848;33;20334;-86
2021/04/01 13:14:44;;;;;;;;;;;;;;;29.67;60.79;99393.78;4358883;32;19995;-86
2021/04/01 13:17:09;;;;;;;;;;;;;;;29.80;60.80;99395.84;4347767;33;19972;-86
2021/04/01 13:19:35;;;;;;;;;;;;;;;29.83;60.80;99395.50;4347878;33;20005;-86
2021/04/01 13:27:03;;;;;;;;;;;;;;;29.70;60.79;99387.22;4357925;32;19988;-86
2021/04/01 13:29:31;;;;;;;;;;;;;;;29.58;60.79;99382.31;4358660;32;20007;-86
2021/04/01 13:32:00;;;;;;;;;;;;;;;29.54;60.78;99378.28;4346125;33;20034;-85
2021/04/01 13:34:30;;;;;;;;;;;;;;;29.34;60.77;99367.22;4347686;33;19984;-86
2021/04/01 13:39:36;;;;;;;;;;;;;;;29.38;60.77;99367.69;4357653;32;20075;-86
2021/04/01 13:44:27;;;;;;;;;;;;;;;29.12;60.77;99361.84;4347630;33;20419;-86
2021/04/01 13:46:53;;;;;;;;;;;;;;;29.13;60.77;99368.84;4358767;32;20000;-86
2021/04/01 13:49:22;;;;;;;;;;;;;;;29.02;60.76;99360.19;4347746;33;20355;-86
2021/04/01 13:51:50;;;;;;;;;;;;;;;28.91;60.75;99365.12;4347559;33;20523;-86
2021/04/01 13:56:53;;;;;;;;;;;;;;;28.82;60.75;99356.25;4358417;32;20007;-86
2021/04/01 13:59:25;;;;;;;;;;;;;;;28.78;60.75;99349.59;4357800;32;19999;-86
2021/04/01 14:10:13;;;;;;;;;;;;;;;27.74;60.70;99345.19;4356681;32;20005;-87
2021/04/01 14:12:39;;;;;;;;;;;;;;;27.66;60.70;99342.50;4358396;32;19991;-86
2021/04/01 14:15:06;;;;;;;;;;;;;;;27.49;60.69;99338.16;4358620;32;20011;-86
2021/04/01 14:17:31;;;;;;;;;;;;;;;27.57;60.68;99339.97;4347381;33;20124;-86
2021/04/01 14:19:56;;;;;;;;;;;;;;;27.55;60.68;99334.81;4357632;32;29485;-86
2021/04/01 14:22:22;;;;;;;;;;;;;;;27.48;60.68;99333.81;4345937;33;20059;-86
2021/04/01 14:24:54;;;;;;;;;;;;;;;27.38;60.68;99333.13;4347314;33;19986;-87
2021/04/01 14:27:30;;;;;;;;;;;;;;;27.21;60.67;99325.13;4345989;33;20344;-86
2021/04/01 14:29:56;;;;;;;;;;;;;;;27.21;60.68;99322.44;4357427;32;19992;-86
2021/04/01 14:32:22;;;;;;;;;;;;;;;27.15;60.67;99323.09;4358207;32;20023;-86
2021/04/01 14:34:47;;;;;;;;;;;;;;;27.13;60.67;99318.91;4358313;32;19986;-86
2021/04/01 14:37:13;;;;;;;;;;;;;;;27.32;60.67;99317.75;4345466;33;24705;-86
2021/04/01 14:39:38;;;;;;;;;;;;;;;27.31;60.67;99318.78;4358282;32;20030;-85
2021/04/01 14:42:08;;;;;;;;;;;;;;;27.35;60.68;99317.44;4358297;32;20356;-86